Time;durP1;ratioP1;P1;durP2;ratioP2;P2;SDS_P1;SDS_P2;PMS_P1;PMS_P2;Temp;Humidity;BMP_temperature;BMP_pressure;BME280_temperature;BME280_humidity;BME280_pressure;Samples;Min_cycle;Max_cycle;Signal;HPM_P1;HPM_P2
2023/08/08 00:02:16;;;;;;;7.78;2.42;;;;;;;;;;4998167;28;25086;-75
2023/08/08 00:04:42;;;;;;;9.73;2.50;;;;;;;;;;5009380;28;25061;-74
2023/08/08 00:07:08;;;;;;;9.50;2.40;;;;;;;;;;5001377;28;25081;-73
2023/08/08 00:09:34;;;;;;;14.52;3.10;;;;;;;;;;4995792;28;25065;-73
2023/08/08 00:12:00;;;;;;;7.10;2.78;;;;;;;;;;5002640;28;25059;-74
2023/08/08 00:14:26;;;;;;;10.13;2.60;;;;;;;;;;5003550;28;25067;-75
2023/08/08 00:16:52;;;;;;;15.77;3.08;;;;;;;;;;4999786;28;25083;-73
2023/08/08 00:19:18;;;;;;;12.15;2.88;;;;;;;;;;5010273;28;25071;-73
2023/08/08 00:21:44;;;;;;;7.95;2.88;;;;;;;;;;4992637;28;25080;-73
2023/08/08 00:24:10;;;;;;;7.70;3.03;;;;;;;;;;5000336;28;25060;-74
2023/08/08 00:26:36;;;;;;;9.48;2.40;;;;;;;;;;4997663;28;25083;-74
2023/08/08 00:29:02;;;;;;;10.48;3.05;;;;;;;;;;4997807;28;25182;-75
2023/08/08 00:31:28;;;;;;;8.80;2.50;;;;;;;;;;4994914;28;25061;-75
2023/08/08 00:33:54;;;;;;;9.73;2.70;;;;;;;;;;4999183;28;25088;-73
2023/08/08 00:36:20;;;;;;;5.97;2.67;;;;;;;;;;4996241;28;25117;-73
2023/08/08 00:38:46;;;;;;;7.53;2.80;;;;;;;;;;4995293;28;25065;-74
2023/08/08 00:41:12;;;;;;;12.00;3.17;;;;;;;;;;5001271;28;25081;-74
2023/08/08 00:43:38;;;;;;;10.48;3.47;;;;;;;;;;5010388;28;25082;-73
2023/08/08 00:46:04;;;;;;;9.32;2.83;;;;;;;;;;4999273;28;25072;-74
2023/08/08 00:48:32;;;;;;;7.80;2.92;;;;;;;;;;4997800;28;25136;-72
2023/08/08 00:50:59;;;;;;;8.68;3.10;;;;;;;;;;4994159;28;25078;-73
2023/08/08 00:53:28;;;;;;;16.23;3.28;;;;;;;;;;5005273;28;25100;-72
2023/08/08 00:55:54;;;;;;;12.50;3.92;;;;;;;;;;4995282;28;25179;-73
2023/08/08 00:58:20;;;;;;;8.18;3.17;;;;;;;;;;5000697;28;25069;-73
2023/08/08 01:00:46;;;;;;;14.68;3.85;;;;;;;;;;5011038;28;25147;-73
2023/08/08 01:03:12;;;;;;;18.00;4.60;;;;;;;;;;5003551;28;25146;-72
2023/08/08 01:05:46;;;;;;;16.17;4.28;;;;;;;;;;5025884;28;25064;-75
2023/08/08 01:08:13;;;;;;;15.40;3.80;;;;;;;;;;5021047;28;25166;-74
2023/08/08 01:10:40;;;;;;;14.48;4.38;;;;;;;;;;5010026;28;25058;-71
2023/08/08 01:13:09;;;;;;;11.85;3.67;;;;;;;;;;5000426;28;25429;-72
2023/08/08 01:15:35;;;;;;;12.98;4.45;;;;;;;;;;4998069;28;25109;-73
2023/08/08 01:18:08;;;;;;;17.95;4.60;;;;;;;;;;5000822;28;25068;-72
2023/08/08 01:20:35;;;;;;;12.30;4.22;;;;;;;;;;4994718;28;25158;-72
2023/08/08 01:23:07;;;;;;;18.48;5.22;;;;;;;;;;4998259;28;25069;-72
2023/08/08 01:25:33;;;;;;;9.05;3.53;;;;;;;;;;5002907;28;25108;-74
2023/08/08 01:27:59;;;;;;;19.52;4.60;;;;;;;;;;4998844;28;25063;-72
2023/08/08 01:30:25;;;;;;;15.23;3.50;;;;;;;;;;5000986;28;25062;-72
2023/08/08 01:32:51;;;;;;;11.23;3.88;;;;;;;;;;4997212;28;25073;-73
2023/08/08 01:35:17;;;;;;;10.88;4.63;;;;;;;;;;5001308;28;25132;-72
2023/08/08 01:37:56;;;;;;;13.73;4.43;;;;;;;;;;4992721;28;25158;-74
2023/08/08 01:40:22;;;;;;;12.57;4.22;;;;;;;;;;5005556;28;25132;-71
2023/08/08 01:42:49;;;;;;;14.68;4.93;;;;;;;;;;5001858;28;25083;-72
2023/08/08 01:45:18;;;;;;;14.38;4.38;;;;;;;;;;5003564;28;25179;-72
2023/08/08 01:47:49;;;;;;;22.17;4.70;;;;;;;;;;5007458;28;25071;-72
2023/08/08 01:50:15;;;;;;;13.65;4.50;;;;;;;;;;4992515;28;25057;-74
2023/08/08 01:52:41;;;;;;;15.15;5.07;;;;;;;;;;4995769;28;25153;-74
2023/08/08 01:55:08;;;;;;;15.77;5.10;;;;;;;;;;5009864;28;25067;-75
2023/08/08 01:57:33;;;;;;;18.10;4.72;;;;;;;;;;5005411;28;25060;-73
2023/08/08 01:59:59;;;;;;;12.32;4.60;;;;;;;;;;5014169;28;25088;-73
2023/08/08 02:02:25;;;;;;;14.63;4.40;;;;;;;;;;5008254;28;25076;-72
2023/08/08 02:04:51;;;;;;;23.50;5.28;;;;;;;;;;4996181;28;25075;-74
2023/08/08 02:07:17;;;;;;;18.80;5.57;;;;;;;;;;5003688;28;25067;-74
2023/08/08 02:09:45;;;;;;;22.80;5.97;;;;;;;;;;5019957;28;25114;-72
2023/08/08 02:12:11;;;;;;;18.45;4.85;;;;;;;;;;5018696;28;25082;-72
2023/08/08 02:14:37;;;;;;;21.80;5.82;;;;;;;;;;5014815;28;25064;-73
2023/08/08 02:17:04;;;;;;;16.13;5.57;;;;;;;;;;5009527;28;25062;-72
2023/08/08 02:19:30;;;;;;;13.82;5.53;;;;;;;;;;4997052;28;25095;-74
2023/08/08 02:21:56;;;;;;;18.55;4.63;;;;;;;;;;5005966;28;25149;-73
2023/08/08 02:24:22;;;;;;;17.73;5.13;;;;;;;;;;4996732;28;25093;-75
2023/08/08 02:26:48;;;;;;;17.42;5.38;;;;;;;;;;4998677;28;25088;-72
2023/08/08 02:29:14;;;;;;;21.83;6.47;;;;;;;;;;4996758;28;25075;-73
2023/08/08 02:31:40;;;;;;;20.60;5.15;;;;;;;;;;4997161;28;25062;-73
2023/08/08 02:34:06;;;;;;;17.55;4.85;;;;;;;;;;5003704;28;25295;-71
2023/08/08 02:36:33;;;;;;;19.95;5.10;;;;;;;;;;4996557;28;25071;-74
2023/08/08 02:38:59;;;;;;;20.77;5.15;;;;;;;;;;4993378;28;25068;-72
2023/08/08 02:41:25;;;;;;;12.43;5.50;;;;;;;;;;5005241;28;25067;-71
2023/08/08 02:43:51;;;;;;;22.98;5.55;;;;;;;;;;5002442;28;25082;-70
2023/08/08 02:46:17;;;;;;;18.20;5.40;;;;;;;;;;5000216;28;25078;-73
2023/08/08 02:48:43;;;;;;;12.75;4.78;;;;;;;;;;5003876;28;25055;-68
2023/08/08 02:51:09;;;;;;;16.98;5.43;;;;;;;;;;4996975;28;25053;-69
2023/08/08 02:53:35;;;;;;;16.80;5.78;;;;;;;;;;4990812;28;25069;-70
2023/08/08 02:56:01;;;;;;;14.02;4.75;;;;;;;;;;4989186;28;25052;-71
2023/08/08 02:58:27;;;;;;;30.58;6.50;;;;;;;;;;5010872;28;25082;-71
2023/08/08 03:00:53;;;;;;;15.63;5.40;;;;;;;;;;4994751;28;25069;-73
2023/08/08 03:03:19;;;;;;;14.55;5.10;;;;;;;;;;4998029;28;25129;-73
2023/08/08 03:05:46;;;;;;;17.58;5.05;;;;;;;;;;5002786;28;25064;-72
2023/08/08 03:08:12;;;;;;;18.05;5.90;;;;;;;;;;5006528;28;25069;-73
2023/08/08 03:10:38;;;;;;;14.55;4.80;;;;;;;;;;5014681;28;25098;-73
2023/08/08 03:13:04;;;;;;;19.58;4.78;;;;;;;;;;5003968;28;25066;-72
2023/08/08 03:15:30;;;;;;;17.23;5.32;;;;;;;;;;5001454;28;25043;-74
2023/08/08 03:17:56;;;;;;;18.60;5.78;;;;;;;;;;4989483;28;25078;-73
2023/08/08 03:20:22;;;;;;;18.15;5.15;;;;;;;;;;5001589;28;25069;-73
2023/08/08 03:22:48;;;;;;;21.63;6.20;;;;;;;;;;4997683;28;25068;-71
2023/08/08 03:25:14;;;;;;;14.77;5.80;;;;;;;;;;4997842;28;25052;-70
2023/08/08 03:27:40;;;;;;;16.55;5.45;;;;;;;;;;4989523;28;25097;-72
2023/08/08 03:30:07;;;;;;;12.32;5.53;;;;;;;;;;4996256;28;25047;-73
2023/08/08 03:32:33;;;;;;;20.42;6.15;;;;;;;;;;4996526;28;25121;-73
2023/08/08 03:34:59;;;;;;;15.88;6.15;;;;;;;;;;4989943;28;25143;-73
2023/08/08 03:37:25;;;;;;;17.48;5.72;;;;;;;;;;4994921;28;25077;-72
2023/08/08 03:39:51;;;;;;;26.73;6.72;;;;;;;;;;4992177;28;25137;-72
2023/08/08 03:42:17;;;;;;;17.92;6.20;;;;;;;;;;5002598;28;25070;-72
2023/08/08 03:44:45;;;;;;;12.13;5.60;;;;;;;;;;4998932;28;25077;-74
2023/08/08 03:47:11;;;;;;;17.85;5.88;;;;;;;;;;4995429;28;25051;-73
2023/08/08 03:49:37;;;;;;;18.40;6.28;;;;;;;;;;4999602;28;25147;-73
2023/08/08 03:52:03;;;;;;;15.45;5.38;;;;;;;;;;5001939;28;25063;-73
2023/08/08 03:54:29;;;;;;;12.75;5.70;;;;;;;;;;4998219;28;25076;-72
2023/08/08 03:56:55;;;;;;;15.85;5.70;;;;;;;;;;4998250;28;25083;-73
2023/08/08 03:59:21;;;;;;;15.77;5.05;;;;;;;;;;4994424;28;25109;-72
2023/08/08 04:01:47;;;;;;;18.27;6.10;;;;;;;;;;5008090;28;25052;-72
2023/08/08 04:04:13;;;;;;;18.83;5.80;;;;;;;;;;4993398;28;25065;-73
2023/08/08 04:06:39;;;;;;;14.05;5.22;;;;;;;;;;5006734;28;25223;-73
2023/08/08 04:09:06;;;;;;;19.67;6.00;;;;;;;;;;5019028;28;25101;-71
2023/08/08 04:11:32;;;;;;;12.20;5.38;;;;;;;;;;5006180;28;25074;-72
2023/08/08 04:13:58;;;;;;;10.52;4.70;;;;;;;;;;5005037;28;25060;-71
2023/08/08 04:16:24;;;;;;;15.48;4.97;;;;;;;;;;4988426;28;25070;-74
2023/08/08 04:18:50;;;;;;;12.43;4.82;;;;;;;;;;5003329;28;25079;-72
2023/08/08 04:21:16;;;;;;;12.43;4.28;;;;;;;;;;4996769;28;25089;-73
2023/08/08 04:23:42;;;;;;;11.48;4.05;;;;;;;;;;5006314;28;25133;-73
2023/08/08 04:26:08;;;;;;;7.07;4.15;;;;;;;;;;5015127;28;25077;-71
2023/08/08 04:28:34;;;;;;;9.48;2.95;;;;;;;;;;4997940;28;25077;-74
2023/08/08 04:31:00;;;;;;;9.95;3.38;;;;;;;;;;5006467;28;25108;-73
2023/08/08 04:33:26;;;;;;;4.90;2.70;;;;;;;;;;5001836;28;25100;-73
2023/08/08 04:35:52;;;;;;;5.78;2.45;;;;;;;;;;4995312;28;25065;-74
2023/08/08 04:38:18;;;;;;;7.28;2.65;;;;;;;;;;5002983;28;25158;-74
2023/08/08 04:40:44;;;;;;;5.95;2.22;;;;;;;;;;4997411;28;25067;-74
2023/08/08 04:43:10;;;;;;;3.75;2.20;;;;;;;;;;4995243;28;25070;-74
2023/08/08 04:45:36;;;;;;;5.80;2.22;;;;;;;;;;4996067;28;25105;-74
2023/08/08 04:48:02;;;;;;;4.18;1.80;;;;;;;;;;5005167;28;25107;-73
2023/08/08 04:50:28;;;;;;;9.05;2.47;;;;;;;;;;4998572;28;25066;-74
2023/08/08 04:52:54;;;;;;;4.30;2.08;;;;;;;;;;5006676;28;25081;-73
2023/08/08 04:55:20;;;;;;;6.80;1.80;;;;;;;;;;5007066;28;25073;-74
2023/08/08 04:57:46;;;;;;;7.25;2.38;;;;;;;;;;5000455;28;25060;-71
2023/08/08 05:00:13;;;;;;;5.03;1.73;;;;;;;;;;5001098;28;25064;-71
2023/08/08 05:02:40;;;;;;;3.25;1.52;;;;;;;;;;5001378;28;25068;-71
2023/08/08 05:05:07;;;;;;;4.18;1.80;;;;;;;;;;5005372;28;25141;-70
2023/08/08 05:07:36;;;;;;;8.75;2.35;;;;;;;;;;4996224;28;25075;-70
2023/08/08 05:10:02;;;;;;;3.20;1.60;;;;;;;;;;5008874;28;25105;-71
2023/08/08 05:12:28;;;;;;;5.15;1.80;;;;;;;;;;4994008;28;25073;-72
2023/08/08 05:14:54;;;;;;;4.35;1.70;;;;;;;;;;4993590;28;25092;-72
2023/08/08 05:17:20;;;;;;;3.15;1.30;;;;;;;;;;4996997;28;25208;-72
2023/08/08 05:19:46;;;;;;;4.82;1.70;;;;;;;;;;4993101;28;25144;-72
2023/08/08 05:22:12;;;;;;;2.58;1.55;;;;;;;;;;4994893;28;25144;-73
2023/08/08 05:24:38;;;;;;;5.80;1.70;;;;;;;;;;4991240;28;25073;-73
2023/08/08 05:27:06;;;;;;;4.38;1.17;;;;;;;;;;5001649;28;25053;-70
2023/08/08 05:29:31;;;;;;;4.05;1.40;;;;;;;;;;5006296;28;25075;-71
2023/08/08 05:31:57;;;;;;;3.17;1.45;;;;;;;;;;4996171;28;25143;-73
2023/08/08 05:34:26;;;;;;;2.63;1.23;;;;;;;;;;4997905;28;25066;-72
2023/08/08 05:36:52;;;;;;;3.08;1.65;;;;;;;;;;4991401;28;25183;-72
2023/08/08 05:39:19;;;;;;;4.70;1.23;;;;;;;;;;5001805;28;25084;-71
2023/08/08 05:41:45;;;;;;;4.65;1.80;;;;;;;;;;4992910;28;25072;-71
2023/08/08 05:44:11;;;;;;;3.50;1.25;;;;;;;;;;5000663;28;25063;-71
2023/08/08 05:46:37;;;;;;;2.90;1.58;;;;;;;;;;4984554;28;25128;-71
2023/08/08 05:49:03;;;;;;;2.63;1.10;;;;;;;;;;5003508;28;25066;-72
2023/08/08 05:51:29;;;;;;;4.95;1.50;;;;;;;;;;5008729;28;25143;-72
2023/08/08 05:53:55;;;;;;;5.18;1.88;;;;;;;;;;4997142;28;25105;-72
2023/08/08 05:56:21;;;;;;;5.80;1.10;;;;;;;;;;4998605;28;25064;-71
2023/08/08 05:58:47;;;;;;;9.02;1.58;;;;;;;;;;4989865;28;25147;-72
2023/08/08 06:01:13;;;;;;;6.30;1.50;;;;;;;;;;4998459;28;25145;-73
2023/08/08 06:03:39;;;;;;;3.83;1.50;;;;;;;;;;5001893;28;25068;-71
2023/08/08 06:06:06;;;;;;;4.40;1.40;;;;;;;;;;4993410;28;25073;-72
2023/08/08 06:08:32;;;;;;;9.32;1.90;;;;;;;;;;4997192;28;25067;-72
2023/08/08 06:10:58;;;;;;;3.88;1.45;;;;;;;;;;4990636;28;25073;-73
2023/08/08 06:13:24;;;;;;;5.40;1.60;;;;;;;;;;4993407;28;25063;-72
2023/08/08 06:15:50;;;;;;;3.47;1.35;;;;;;;;;;4984769;28;25057;-72
2023/08/08 06:18:17;;;;;;;7.50;1.20;;;;;;;;;;4998226;28;25072;-72
2023/08/08 06:20:43;;;;;;;5.60;1.52;;;;;;;;;;4993855;28;25078;-71
2023/08/08 06:23:10;;;;;;;5.63;1.23;;;;;;;;;;5000172;28;25060;-72
2023/08/08 06:25:36;;;;;;;3.55;1.40;;;;;;;;;;4991834;28;25115;-73
2023/08/08 06:28:03;;;;;;;3.70;1.08;;;;;;;;;;4995247;28;25124;-74
2023/08/08 06:30:29;;;;;;;3.53;1.02;;;;;;;;;;5010693;28;25046;-73
2023/08/08 06:32:55;;;;;;;6.80;1.40;;;;;;;;;;5002518;28;26207;-72
2023/08/08 06:35:20;;;;;;;3.50;1.17;;;;;;;;;;5014975;28;25067;-73
2023/08/08 06:37:47;;;;;;;3.35;1.35;;;;;;;;;;5001196;28;25119;-73
2023/08/08 06:40:13;;;;;;;5.15;1.00;;;;;;;;;;5015602;28;25172;-73
2023/08/08 06:42:39;;;;;;;2.15;1.05;;;;;;;;;;5002015;28;25070;-72
2023/08/08 06:45:05;;;;;;;3.08;1.10;;;;;;;;;;4993552;28;25059;-72
2023/08/08 06:47:31;;;;;;;5.28;1.20;;;;;;;;;;4989186;28;25115;-73
2023/08/08 06:49:57;;;;;;;2.30;1.00;;;;;;;;;;4999379;28;25051;-73
2023/08/08 06:52:23;;;;;;;3.42;0.95;;;;;;;;;;4988457;28;25125;-74
2023/08/08 06:54:49;;;;;;;3.28;1.40;;;;;;;;;;4986792;28;25066;-71
2023/08/08 06:57:15;;;;;;;3.63;1.15;;;;;;;;;;4986287;28;25075;-73
2023/08/08 06:59:41;;;;;;;3.40;1.02;;;;;;;;;;4996166;28;25117;-72
2023/08/08 07:02:07;;;;;;;2.38;0.93;;;;;;;;;;4990845;28;25098;-72
2023/08/08 07:04:33;;;;;;;2.03;1.13;;;;;;;;;;4998309;28;25148;-73
2023/08/08 07:06:59;;;;;;;4.80;0.90;;;;;;;;;;5001160;28;25048;-73
2023/08/08 07:09:25;;;;;;;5.05;0.93;;;;;;;;;;4996291;28;25080;-72
2023/08/08 07:11:51;;;;;;;4.30;0.80;;;;;;;;;;4986850;28;25105;-71
2023/08/08 07:14:17;;;;;;;4.28;1.05;;;;;;;;;;4983537;28;25057;-71
2023/08/08 07:16:43;;;;;;;1.98;0.90;;;;;;;;;;4985925;28;25055;-73
2023/08/08 07:19:11;;;;;;;6.78;1.33;;;;;;;;;;4996950;28;25051;-72
2023/08/08 07:21:37;;;;;;;2.70;0.90;;;;;;;;;;4998891;28;25048;-74
2023/08/08 07:24:03;;;;;;;2.63;0.88;;;;;;;;;;4986282;28;25065;-74
2023/08/08 07:26:29;;;;;;;2.15;0.70;;;;;;;;;;4995475;28;25072;-76
2023/08/08 07:28:55;;;;;;;2.92;0.70;;;;;;;;;;4995422;28;25169;-74
2023/08/08 07:31:21;;;;;;;2.53;0.80;;;;;;;;;;4987993;28;25053;-73
2023/08/08 07:33:47;;;;;;;3.22;0.70;;;;;;;;;;4997213;28;25090;-74
2023/08/08 07:36:13;;;;;;;2.92;0.63;;;;;;;;;;5015099;28;25092;-72
2023/08/08 07:38:39;;;;;;;3.22;1.17;;;;;;;;;;4998938;28;25086;-73
2023/08/08 07:41:05;;;;;;;2.70;0.73;;;;;;;;;;4992570;28;25059;-74
2023/08/08 07:43:32;;;;;;;2.65;1.42;;;;;;;;;;4997365;28;25096;-72
2023/08/08 07:45:57;;;;;;;3.70;0.80;;;;;;;;;;4991047;28;25100;-72
2023/08/08 07:48:23;;;;;;;2.25;0.80;;;;;;;;;;4999629;28;25152;-75
2023/08/08 07:50:49;;;;;;;5.10;1.00;;;;;;;;;;4995730;28;25078;-75
2023/08/08 07:53:15;;;;;;;2.72;0.70;;;;;;;;;;4987623;28;25075;-74
2023/08/08 07:55:41;;;;;;;2.65;0.82;;;;;;;;;;4989118;28;25132;-73
2023/08/08 07:58:07;;;;;;;2.83;0.70;;;;;;;;;;4978330;28;25058;-74
2023/08/08 08:00:33;;;;;;;1.65;0.93;;;;;;;;;;4996257;28;25059;-74
2023/08/08 08:02:59;;;;;;;2.17;0.75;;;;;;;;;;4996787;28;25067;-74
2023/08/08 08:05:25;;;;;;;1.45;1.33;;;;;;;;;;5000971;28;25079;-74
2023/08/08 08:07:51;;;;;;;2.95;0.88;;;;;;;;;;4998491;28;25074;-73
2023/08/08 08:10:17;;;;;;;1.85;0.63;;;;;;;;;;5009726;28;25152;-74
2023/08/08 08:12:43;;;;;;;1.75;0.50;;;;;;;;;;4999724;28;25053;-73
2023/08/08 08:15:10;;;;;;;3.53;1.10;;;;;;;;;;5000785;28;25074;-73
2023/08/08 08:17:36;;;;;;;2.47;0.88;;;;;;;;;;4994163;28;25102;-75
2023/08/08 08:20:05;;;;;;;3.60;0.75;;;;;;;;;;4987806;28;25101;-74
2023/08/08 08:22:31;;;;;;;3.22;0.90;;;;;;;;;;5005280;28;25096;-72
2023/08/08 08:24:57;;;;;;;1.88;0.82;;;;;;;;;;4988205;28;25068;-75
2023/08/08 08:27:23;;;;;;;1.33;0.70;;;;;;;;;;4996934;28;25148;-72
2023/08/08 08:29:49;;;;;;;1.55;0.70;;;;;;;;;;4987223;28;25074;-73
2023/08/08 08:32:15;;;;;;;0.60;0.60;;;;;;;;;;4992410;28;25068;-74
2023/08/08 08:34:41;;;;;;;5.43;0.75;;;;;;;;;;4995561;28;25099;-73
2023/08/08 08:37:07;;;;;;;0.70;0.70;;;;;;;;;;4987907;28;25055;-75
2023/08/08 08:39:33;;;;;;;1.88;0.98;;;;;;;;;;4986270;28;25069;-74
2023/08/08 08:42:03;;;;;;;3.42;0.85;;;;;;;;;;4985816;28;25066;-74
2023/08/08 08:44:30;;;;;;;1.75;0.80;;;;;;;;;;5012191;28;25227;-73
2023/08/08 08:46:58;;;;;;;3.67;0.80;;;;;;;;;;4985685;28;25139;-72
2023/08/08 08:49:25;;;;;;;2.67;0.93;;;;;;;;;;5011186;28;25063;-74
2023/08/08 08:51:51;;;;;;;1.77;1.00;;;;;;;;;;4987635;28;25079;-75
2023/08/08 08:54:17;;;;;;;3.53;0.80;;;;;;;;;;4994711;28;25076;-74
2023/08/08 08:56:43;;;;;;;3.42;1.25;;;;;;;;;;4985926;28;25079;-74
2023/08/08 08:59:09;;;;;;;6.10;1.20;;;;;;;;;;4990378;28;25118;-75
2023/08/08 09:01:36;;;;;;;1.48;1.00;;;;;;;;;;4991165;28;25080;-74
2023/08/08 09:04:02;;;;;;;3.05;0.70;;;;;;;;;;4988880;28;25165;-73
2023/08/08 09:06:29;;;;;;;2.50;0.80;;;;;;;;;;4988901;28;25068;-72
2023/08/08 09:08:55;;;;;;;1.98;0.63;;;;;;;;;;4996984;28;25063;-73
2023/08/08 09:11:20;;;;;;;1.75;0.82;;;;;;;;;;4999789;28;25109;-74
2023/08/08 09:13:46;;;;;;;1.27;0.77;;;;;;;;;;5000952;28;25100;-74
2023/08/08 09:16:14;;;;;;;1.70;0.98;;;;;;;;;;4999177;28;25076;-72
2023/08/08 09:18:42;;;;;;;4.03;0.80;;;;;;;;;;5004979;28;25067;-73
2023/08/08 09:21:08;;;;;;;2.05;0.90;;;;;;;;;;4993336;28;25063;-74
2023/08/08 09:23:34;;;;;;;2.38;1.13;;;;;;;;;;4996526;28;25088;-74
2023/08/08 09:26:01;;;;;;;2.00;0.80;;;;;;;;;;4994202;28;25089;-75
2023/08/08 09:28:27;;;;;;;3.08;1.10;;;;;;;;;;4995462;28;25200;-72
2023/08/08 09:30:53;;;;;;;2.58;1.08;;;;;;;;;;4984957;28;25088;-73
2023/08/08 09:33:19;;;;;;;2.40;0.90;;;;;;;;;;4995865;28;25156;-75
2023/08/08 09:35:45;;;;;;;2.25;0.90;;;;;;;;;;4987353;28;25068;-74
2023/08/08 09:38:11;;;;;;;1.45;1.15;;;;;;;;;;4997685;28;25109;-74
2023/08/08 09:40:37;;;;;;;1.17;0.70;;;;;;;;;;4997568;28;25085;-73
2023/08/08 09:43:03;;;;;;;4.35;0.70;;;;;;;;;;4991897;28;25057;-75
2023/08/08 09:45:41;;;;;;;4.70;0.80;;;;;;;;;;4986717;28;25084;-73
2023/08/08 09:48:08;;;;;;;4.00;0.90;;;;;;;;;;4982436;28;25082;-75
2023/08/08 09:50:34;;;;;;;1.67;0.88;;;;;;;;;;4992830;28;25036;-71
2023/08/08 09:53:01;;;;;;;2.42;0.95;;;;;;;;;;4985014;28;25058;-73
2023/08/08 09:55:27;;;;;;;2.60;0.90;;;;;;;;;;5005270;28;25043;-73
2023/08/08 09:57:54;;;;;;;4.05;0.90;;;;;;;;;;5006677;28;25070;-72
2023/08/08 10:00:20;;;;;;;2.15;1.02;;;;;;;;;;5000068;28;25176;-72
2023/08/08 10:02:47;;;;;;;5.97;1.00;;;;;;;;;;4999200;28;25052;-74
2023/08/08 10:05:14;;;;;;;2.38;1.00;;;;;;;;;;4997933;28;25060;-74
2023/08/08 10:07:41;;;;;;;1.35;0.80;;;;;;;;;;5001278;28;25101;-71
2023/08/08 10:10:09;;;;;;;1.65;0.73;;;;;;;;;;5002883;28;25066;-75
2023/08/08 10:12:37;;;;;;;2.03;1.00;;;;;;;;;;5015909;28;25098;-73
2023/08/08 10:15:03;;;;;;;3.17;0.77;;;;;;;;;;5000868;28;25072;-73
2023/08/08 10:17:35;;;;;;;3.58;0.68;;;;;;;;;;5000734;28;25118;-73
2023/08/08 10:20:09;;;;;;;0.85;0.70;;;;;;;;;;4987216;28;25084;-73
2023/08/08 10:22:35;;;;;;;1.98;0.65;;;;;;;;;;5002981;28;25064;-73
2023/08/08 10:25:03;;;;;;;3.25;1.20;;;;;;;;;;4990985;28;25054;-75
2023/08/08 10:27:33;;;;;;;3.50;0.68;;;;;;;;;;4994310;28;25080;-73
2023/08/08 10:30:10;;;;;;;6.85;0.95;;;;;;;;;;4994246;28;25081;-73
2023/08/08 10:32:46;;;;;;;2.80;0.82;;;;;;;;;;5022039;28;25081;-74
2023/08/08 10:35:12;;;;;;;3.90;0.70;;;;;;;;;;4990353;28;25108;-73
2023/08/08 10:37:39;;;;;;;1.15;0.77;;;;;;;;;;5030270;28;25060;-75
2023/08/08 10:40:06;;;;;;;2.08;0.68;;;;;;;;;;5002184;28;25110;-73
2023/08/08 10:42:33;;;;;;;1.95;0.70;;;;;;;;;;5004742;28;25069;-73
2023/08/08 10:45:00;;;;;;;2.47;0.70;;;;;;;;;;4997702;28;25055;-75
2023/08/08 10:47:34;;;;;;;1.55;0.60;;;;;;;;;;4983040;28;25109;-75
2023/08/08 10:50:07;;;;;;;0.85;0.50;;;;;;;;;;4998074;28;25058;-73
2023/08/08 10:52:51;;;;;;;3.40;0.80;;;;;;;;;;4994663;28;25163;-74
2023/08/08 10:55:25;;;;;;;1.80;0.55;;;;;;;;;;4993350;28;25156;-72
2023/08/08 10:58:03;;;;;;;3.45;1.08;;;;;;;;;;4990719;28;25050;-72
2023/08/08 11:00:31;;;;;;;1.25;0.70;;;;;;;;;;4991656;28;25074;-72
2023/08/08 11:02:57;;;;;;;2.20;0.82;;;;;;;;;;4997829;28;25065;-72
2023/08/08 11:05:24;;;;;;;6.07;0.85;;;;;;;;;;5006494;28;25144;-73
2023/08/08 11:07:50;;;;;;;1.88;0.70;;;;;;;;;;4998405;28;25093;-74
2023/08/08 11:10:16;;;;;;;1.05;0.82;;;;;;;;;;4998231;28;25079;-74
2023/08/08 11:12:42;;;;;;;1.50;0.73;;;;;;;;;;5001781;28;25044;-74
2023/08/08 11:15:09;;;;;;;2.55;0.93;;;;;;;;;;4996848;28;25100;-73
2023/08/08 11:17:35;;;;;;;1.00;1.00;;;;;;;;;;4991520;28;25074;-72
2023/08/08 11:20:01;;;;;;;2.50;0.90;;;;;;;;;;4988400;28;25182;-72
2023/08/08 11:22:27;;;;;;;1.45;0.60;;;;;;;;;;4996315;28;25050;-73
2023/08/08 11:24:57;;;;;;;2.97;0.57;;;;;;;;;;5001713;28;25078;-71
2023/08/08 11:27:24;;;;;;;1.90;0.70;;;;;;;;;;4993357;28;25056;-72
2023/08/08 11:29:51;;;;;;;0.93;0.70;;;;;;;;;;4992162;28;25056;-74
2023/08/08 11:32:17;;;;;;;2.28;0.95;;;;;;;;;;5004689;28;25065;-74
2023/08/08 11:34:43;;;;;;;5.43;0.80;;;;;;;;;;5008716;28;25100;-73
2023/08/08 11:37:10;;;;;;;2.90;1.13;;;;;;;;;;5006536;28;25059;-73
2023/08/08 11:39:36;;;;;;;2.63;1.10;;;;;;;;;;4997802;28;25049;-75
2023/08/08 11:42:02;;;;;;;1.90;1.02;;;;;;;;;;4993393;28;25050;-73
2023/08/08 11:44:28;;;;;;;2.30;1.33;;;;;;;;;;4999466;28;25068;-71
2023/08/08 11:46:54;;;;;;;3.15;0.73;;;;;;;;;;4994972;28;25119;-73
2023/08/08 11:49:21;;;;;;;1.13;0.80;;;;;;;;;;4992294;28;25154;-73
2023/08/08 11:51:47;;;;;;;2.63;0.90;;;;;;;;;;4996964;28;25160;-73
2023/08/08 11:54:13;;;;;;;3.03;1.00;;;;;;;;;;4986114;28;25124;-73
2023/08/08 11:56:39;;;;;;;1.50;0.82;;;;;;;;;;4995577;28;25076;-73
2023/08/08 11:59:06;;;;;;;1.50;1.17;;;;;;;;;;4989559;28;25072;-74
2023/08/08 12:01:34;;;;;;;2.60;0.90;;;;;;;;;;4991928;28;25061;-74
2023/08/08 12:04:07;;;;;;;2.55;1.10;;;;;;;;;;4982323;28;25078;-73
2023/08/08 12:06:33;;;;;;;4.55;1.23;;;;;;;;;;4989412;28;25057;-73
2023/08/08 12:09:01;;;;;;;3.85;1.02;;;;;;;;;;5006908;28;25066;-74
2023/08/08 12:11:28;;;;;;;3.03;1.25;;;;;;;;;;5005842;28;25075;-74
2023/08/08 12:13:59;;;;;;;3.78;1.10;;;;;;;;;;4993665;28;25070;-74
2023/08/08 12:16:28;;;;;;;1.90;0.93;;;;;;;;;;5006454;28;25109;-73
2023/08/08 12:18:54;;;;;;;1.10;0.70;;;;;;;;;;4992292;28;25129;-75
2023/08/08 12:21:20;;;;;;;1.05;0.80;;;;;;;;;;4992771;28;25144;-76
2023/08/08 12:23:46;;;;;;;3.35;0.98;;;;;;;;;;4991004;28;25058;-72
2023/08/08 12:26:12;;;;;;;1.45;1.02;;;;;;;;;;4993689;28;25088;-71
2023/08/08 12:28:38;;;;;;;5.78;1.17;;;;;;;;;;4990750;28;25074;-72
2023/08/08 12:31:04;;;;;;;2.28;0.93;;;;;;;;;;4991188;28;25145;-72
2023/08/08 12:33:30;;;;;;;2.28;0.95;;;;;;;;;;4991596;28;25133;-75
2023/08/08 12:35:56;;;;;;;1.77;1.13;;;;;;;;;;5002745;28;25052;-74
2023/08/08 12:38:22;;;;;;;2.05;0.90;;;;;;;;;;5003612;28;25064;-72
2023/08/08 12:40:48;;;;;;;5.43;1.27;;;;;;;;;;5012872;28;25117;-72
2023/08/08 12:43:17;;;;;;;2.25;0.75;;;;;;;;;;4994905;28;25152;-71
2023/08/08 12:45:44;;;;;;;1.98;0.65;;;;;;;;;;4996539;28;25061;-76
2023/08/08 12:48:10;;;;;;;1.83;1.13;;;;;;;;;;4994776;28;25106;-73
2023/08/08 12:50:37;;;;;;;2.03;1.10;;;;;;;;;;5011919;28;25063;-73
2023/08/08 12:53:04;;;;;;;0.77;0.75;;;;;;;;;;5019330;28;25099;-72
2023/08/08 12:55:30;;;;;;;1.67;1.02;;;;;;;;;;5007186;28;25075;-74
2023/08/08 12:57:56;;;;;;;1.90;1.05;;;;;;;;;;5018961;28;25079;-74
2023/08/08 13:00:22;;;;;;;6.00;1.10;;;;;;;;;;5007689;28;25102;-73
2023/08/08 13:02:48;;;;;;;2.30;1.10;;;;;;;;;;5006513;28;25054;-72
2023/08/08 13:05:14;;;;;;;3.03;1.38;;;;;;;;;;5000764;28;25066;-74
2023/08/08 13:07:40;;;;;;;8.23;1.25;;;;;;;;;;4999611;28;25078;-74
2023/08/08 13:10:06;;;;;;;2.05;0.95;;;;;;;;;;4995475;28;25132;-74
2023/08/08 13:12:32;;;;;;;2.10;1.08;;;;;;;;;;4999116;28;25079;-70
2023/08/08 13:14:58;;;;;;;3.67;1.00;;;;;;;;;;5000975;28;25067;-73
2023/08/08 13:17:24;;;;;;;6.30;1.50;;;;;;;;;;4999118;28;25083;-70
2023/08/08 13:19:50;;;;;;;2.70;1.10;;;;;;;;;;4991923;28;25057;-72
2023/08/08 13:22:16;;;;;;;5.38;1.00;;;;;;;;;;4995592;28;25068;-72
2023/08/08 13:24:42;;;;;;;3.45;0.80;;;;;;;;;;4992046;28;25067;-71
2023/08/08 13:27:08;;;;;;;5.80;1.52;;;;;;;;;;4997049;28;25061;-73
2023/08/08 13:29:34;;;;;;;4.03;1.15;;;;;;;;;;4991806;28;25074;-73
2023/08/08 13:32:00;;;;;;;3.75;1.20;;;;;;;;;;5004359;28;25096;-71
2023/08/08 13:34:26;;;;;;;2.63;1.10;;;;;;;;;;5005132;28;25052;-72
2023/08/08 13:36:52;;;;;;;2.00;1.02;;;;;;;;;;5000158;28;25060;-71
2023/08/08 13:39:18;;;;;;;1.13;0.70;;;;;;;;;;5004362;28;25075;-72
2023/08/08 13:41:44;;;;;;;4.75;0.95;;;;;;;;;;4999900;28;25098;-71
2023/08/08 13:44:10;;;;;;;2.70;0.85;;;;;;;;;;4991440;28;25099;-71
2023/08/08 13:46:36;;;;;;;4.22;0.90;;;;;;;;;;5008891;28;25109;-72
2023/08/08 13:49:02;;;;;;;1.48;0.77;;;;;;;;;;5001757;28;25066;-71
2023/08/08 13:51:28;;;;;;;2.08;1.00;;;;;;;;;;4996862;28;25085;-72
2023/08/08 13:53:54;;;;;;;3.92;1.10;;;;;;;;;;5001756;28;25116;-72
2023/08/08 13:56:20;;;;;;;3.35;1.40;;;;;;;;;;5001714;28;25153;-72
2023/08/08 13:58:46;;;;;;;2.55;0.93;;;;;;;;;;4999228;28;25077;-72
2023/08/08 14:01:12;;;;;;;4.43;0.98;;;;;;;;;;4995039;28;25059;-72
2023/08/08 14:03:38;;;;;;;1.42;1.05;;;;;;;;;;5003100;28;25173;-71
2023/08/08 14:06:06;;;;;;;1.65;0.95;;;;;;;;;;4990001;28;25087;-71
2023/08/08 14:08:32;;;;;;;1.10;0.85;;;;;;;;;;4988164;28;25107;-74
2023/08/08 14:10:58;;;;;;;3.63;1.10;;;;;;;;;;4991328;28;25164;-71
2023/08/08 14:13:24;;;;;;;4.15;1.30;;;;;;;;;;5018931;28;25119;-71
2023/08/08 14:15:51;;;;;;;1.48;0.98;;;;;;;;;;4997982;28;25089;-71
2023/08/08 14:18:17;;;;;;;6.68;1.58;;;;;;;;;;5007150;28;25078;-71
2023/08/08 14:20:43;;;;;;;0.93;0.80;;;;;;;;;;5005364;28;25060;-74
2023/08/08 14:23:09;;;;;;;1.17;1.00;;;;;;;;;;4996239;28;25168;-72
2023/08/08 14:25:35;;;;;;;2.53;1.08;;;;;;;;;;5008950;28;25064;-73
2023/08/08 14:28:02;;;;;;;3.53;1.17;;;;;;;;;;5011427;28;25069;-71
2023/08/08 14:30:28;;;;;;;1.67;1.10;;;;;;;;;;4995648;28;25117;-70
2023/08/08 14:32:54;;;;;;;4.05;0.98;;;;;;;;;;5002033;28;25053;-70
2023/08/08 14:35:21;;;;;;;2.45;1.20;;;;;;;;;;5006660;28;25121;-71
2023/08/08 14:37:46;;;;;;;5.53;1.10;;;;;;;;;;4992977;28;25153;-70